sensor_id;sensor_type;location;lat;lon;timestamp;P1;durP1;ratioP1;P2;durP2;ratioP2
76105;SDS011;64832;45.274;5.880;2023-01-06T00:00:14;8.23;;;6.25;;
76105;SDS011;64832;45.274;5.880;2023-01-06T00:02:40;7.18;;;6.25;;
76105;SDS011;64832;45.274;5.880;2023-01-06T00:05:06;7.90;;;6.10;;
76105;SDS011;64832;45.274;5.880;2023-01-06T00:07:31;8.20;;;5.88;;
76105;SDS011;64832;45.274;5.880;2023-01-06T00:09:57;6.38;;;5.68;;
76105;SDS011;64832;45.274;5.880;2023-01-06T00:12:22;8.02;;;5.93;;
76105;SDS011;64832;45.274;5.880;2023-01-06T00:14:50;7.65;;;5.97;;
76105;SDS011;64832;45.274;5.880;2023-01-06T00:17:16;6.55;;;5.22;;
76105;SDS011;64832;45.274;5.880;2023-01-06T00:19:42;7.03;;;5.40;;
76105;SDS011;64832;45.274;5.880;2023-01-06T00:22:07;9.20;;;5.65;;
76105;SDS011;64832;45.274;5.880;2023-01-06T00:24:32;7.25;;;5.60;;
76105;SDS011;64832;45.274;5.880;2023-01-06T00:26:58;6.45;;;5.70;;
76105;SDS011;64832;45.274;5.880;2023-01-06T00:29:24;6.45;;;5.75;;
76105;SDS011;64832;45.274;5.880;2023-01-06T03:02:52;5.80;;;4.53;;
76105;SDS011;64832;45.274;5.880;2023-01-06T03:05:21;5.82;;;4.30;;
76105;SDS011;64832;45.274;5.880;2023-01-06T03:07:48;5.90;;;4.75;;
76105;SDS011;64832;45.274;5.880;2023-01-06T03:10:16;6.10;;;4.50;;
76105;SDS011;64832;45.274;5.880;2023-01-06T03:12:54;5.18;;;3.97;;
76105;SDS011;64832;45.274;5.880;2023-01-06T03:15:26;6.25;;;4.65;;
76105;SDS011;64832;45.274;5.880;2023-01-06T03:17:52;5.20;;;4.35;;
76105;SDS011;64832;45.274;5.880;2023-01-06T03:20:18;5.15;;;4.30;;
76105;SDS011;64832;45.274;5.880;2023-01-06T03:22:44;5.85;;;4.22;;
76105;SDS011;64832;45.274;5.880;2023-01-06T03:25:09;5.32;;;4.07;;
76105;SDS011;64832;45.274;5.880;2023-01-06T03:27:35;4.53;;;4.03;;
76105;SDS011;64832;45.274;5.880;2023-01-06T06:30:33;7.10;;;4.25;;
76105;SDS011;64832;45.274;5.880;2023-01-06T06:32:58;9.15;;;4.55;;
76105;SDS011;64832;45.274;5.880;2023-01-06T06:35:23;7.97;;;4.32;;
76105;SDS011;64832;45.274;5.880;2023-01-06T06:37:51;6.78;;;4.05;;
76105;SDS011;64832;45.274;5.880;2023-01-06T06:40:17;15.07;;;5.38;;
76105;SDS011;64832;45.274;5.880;2023-01-06T06:42:43;9.77;;;4.90;;
76105;SDS011;64832;45.274;5.880;2023-01-06T06:45:08;9.15;;;5.10;;
76105;SDS011;64832;45.274;5.880;2023-01-06T06:47:34;7.63;;;4.78;;
76105;SDS011;64832;45.274;5.880;2023-01-06T06:49:59;6.50;;;4.47;;
76105;SDS011;64832;45.274;5.880;2023-01-06T06:52:25;8.65;;;4.40;;
76105;SDS011;64832;45.274;5.880;2023-01-06T06:54:50;9.27;;;5.10;;
76105;SDS011;64832;45.274;5.880;2023-01-06T06:57:15;15.05;;;5.07;;
76105;SDS011;64832;45.274;5.880;2023-01-06T06:59:41;11.43;;;4.65;;
76105;SDS011;64832;45.274;5.880;2023-01-06T07:02:07;8.85;;;4.00;;
76105;SDS011;64832;45.274;5.880;2023-01-06T07:04:32;7.95;;;4.18;;
76105;SDS011;64832;45.274;5.880;2023-01-06T07:06:58;10.88;;;4.55;;
76105;SDS011;64832;45.274;5.880;2023-01-06T07:09:23;9.02;;;4.05;;
76105;SDS011;64832;45.274;5.880;2023-01-06T07:11:48;13.13;;;5.72;;
76105;SDS011;64832;45.274;5.880;2023-01-06T07:14:14;20.30;;;9.05;;
76105;SDS011;64832;45.274;5.880;2023-01-06T07:16:39;12.68;;;8.75;;
76105;SDS011;64832;45.274;5.880;2023-01-06T07:19:06;10.20;;;7.15;;
76105;SDS011;64832;45.274;5.880;2023-01-06T07:21:32;12.52;;;7.40;;
76105;SDS011;64832;45.274;5.880;2023-01-06T07:23:58;11.80;;;6.47;;
76105;SDS011;64832;45.274;5.880;2023-01-06T07:26:23;10.50;;;6.68;;
76105;SDS011;64832;45.274;5.880;2023-01-06T07:28:48;9.20;;;6.22;;
76105;SDS011;64832;45.274;5.880;2023-01-06T07:31:14;12.98;;;6.60;;
76105;SDS011;64832;45.274;5.880;2023-01-06T07:33:39;10.68;;;6.47;;
76105;SDS011;64832;45.274;5.880;2023-01-06T07:36:05;9.13;;;6.18;;
76105;SDS011;64832;45.274;5.880;2023-01-06T07:38:30;9.27;;;6.22;;
76105;SDS011;64832;45.274;5.880;2023-01-06T07:41:00;10.65;;;6.57;;
76105;SDS011;64832;45.274;5.880;2023-01-06T07:43:25;10.10;;;6.18;;
76105;SDS011;64832;45.274;5.880;2023-01-06T07:45:51;10.60;;;6.13;;
76105;SDS011;64832;45.274;5.880;2023-01-06T07:48:16;9.98;;;6.57;;
76105;SDS011;64832;45.274;5.880;2023-01-06T07:50:42;10.93;;;6.75;;
76105;SDS011;64832;45.274;5.880;2023-01-06T07:53:08;8.10;;;5.70;;
76105;SDS011;64832;45.274;5.880;2023-01-06T07:55:34;8.25;;;5.82;;
76105;SDS011;64832;45.274;5.880;2023-01-06T07:58:02;8.70;;;5.93;;
76105;SDS011;64832;45.274;5.880;2023-01-06T08:00:28;9.57;;;5.93;;
76105;SDS011;64832;45.274;5.880;2023-01-06T08:02:54;7.78;;;5.57;;
76105;SDS011;64832;45.274;5.880;2023-01-06T08:05:19;9.65;;;5.50;;
76105;SDS011;64832;45.274;5.880;2023-01-06T08:07:45;7.32;;;5.10;;
76105;SDS011;64832;45.274;5.880;2023-01-06T08:10:10;7.32;;;5.25;;
76105;SDS011;64832;45.274;5.880;2023-01-06T08:12:36;9.98;;;5.80;;
76105;SDS011;64832;45.274;5.880;2023-01-06T08:15:01;8.93;;;5.35;;
76105;SDS011;64832;45.274;5.880;2023-01-06T08:17:27;7.03;;;5.40;;
76105;SDS011;64832;45.274;5.880;2023-01-06T08:19:52;8.63;;;5.22;;
76105;SDS011;64832;45.274;5.880;2023-01-06T08:22:18;6.53;;;5.05;;
76105;SDS011;64832;45.274;5.880;2023-01-06T08:24:43;9.48;;;5.15;;
76105;SDS011;64832;45.274;5.880;2023-01-06T08:27:09;6.93;;;4.93;;
76105;SDS011;64832;45.274;5.880;2023-01-06T08:29:34;6.75;;;4.95;;
76105;SDS011;64832;45.274;5.880;2023-01-06T08:31:59;6.03;;;4.60;;
76105;SDS011;64832;45.274;5.880;2023-01-06T08:34:25;7.97;;;4.43;;
76105;SDS011;64832;45.274;5.880;2023-01-06T08:36:50;7.40;;;5.05;;
76105;SDS011;64832;45.274;5.880;2023-01-06T08:39:16;7.55;;;4.57;;
76105;SDS011;64832;45.274;5.880;2023-01-06T08:41:42;8.70;;;4.35;;
76105;SDS011;64832;45.274;5.880;2023-01-06T08:44:07;5.63;;;4.47;;
76105;SDS011;64832;45.274;5.880;2023-01-06T08:46:33;4.50;;;4.07;;
76105;SDS011;64832;45.274;5.880;2023-01-06T08:48:58;8.80;;;4.68;;
76105;SDS011;64832;45.274;5.880;2023-01-06T08:51:24;7.40;;;4.18;;
76105;SDS011;64832;45.274;5.880;2023-01-06T08:53:50;8.48;;;4.30;;
76105;SDS011;64832;45.274;5.880;2023-01-06T08:56:20;6.97;;;4.00;;
76105;SDS011;64832;45.274;5.880;2023-01-06T08:58:51;5.47;;;4.50;;
76105;SDS011;64832;45.274;5.880;2023-01-06T09:01:22;6.32;;;3.97;;
76105;SDS011;64832;45.274;5.880;2023-01-06T09:03:59;5.63;;;4.07;;
76105;SDS011;64832;45.274;5.880;2023-01-06T09:06:26;6.90;;;3.80;;
76105;SDS011;64832;45.274;5.880;2023-01-06T09:08:54;8.10;;;3.60;;
76105;SDS011;64832;45.274;5.880;2023-01-06T09:11:21;6.00;;;4.18;;
76105;SDS011;64832;45.274;5.880;2023-01-06T09:13:47;4.75;;;3.70;;
76105;SDS011;64832;45.274;5.880;2023-01-06T09:16:14;5.05;;;3.80;;
76105;SDS011;64832;45.274;5.880;2023-01-06T09:18:40;5.65;;;3.70;;
76105;SDS011;64832;45.274;5.880;2023-01-06T09:21:11;4.20;;;3.45;;
76105;SDS011;64832;45.274;5.880;2023-01-06T09:23:36;4.93;;;3.67;;
76105;SDS011;64832;45.274;5.880;2023-01-06T09:26:02;5.38;;;3.67;;
76105;SDS011;64832;45.274;5.880;2023-01-06T09:28:27;4.93;;;3.60;;
76105;SDS011;64832;45.274;5.880;2023-01-06T09:30:53;6.30;;;3.47;;
76105;SDS011;64832;45.274;5.880;2023-01-06T09:33:18;4.63;;;2.97;;
76105;SDS011;64832;45.274;5.880;2023-01-06T09:35:44;6.60;;;3.33;;
76105;SDS011;64832;45.274;5.880;2023-01-06T09:38:10;5.95;;;3.50;;
76105;SDS011;64832;45.274;5.880;2023-01-06T09:46:07;4.25;;;3.20;;
76105;SDS011;64832;45.274;5.880;2023-01-06T09:48:38;5.10;;;3.40;;
76105;SDS011;64832;45.274;5.880;2023-01-06T09:51:08;5.32;;;3.38;;
76105;SDS011;64832;45.274;5.880;2023-01-06T09:53:40;4.80;;;3.38;;
76105;SDS011;64832;45.274;5.880;2023-01-06T09:56:15;4.65;;;3.22;;
76105;SDS011;64832;45.274;5.880;2023-01-06T10:01:28;4.60;;;3.03;;
76105;SDS011;64832;45.274;5.880;2023-01-06T10:03:58;3.28;;;2.97;;
76105;SDS011;64832;45.274;5.880;2023-01-06T10:25:23;6.25;;;2.75;;
76105;SDS011;64832;45.274;5.880;2023-01-06T10:28:10;3.30;;;2.63;;
76105;SDS011;64832;45.274;5.880;2023-01-06T10:30:43;3.72;;;2.85;;
76105;SDS011;64832;45.274;5.880;2023-01-06T10:33:30;4.45;;;2.97;;
76105;SDS011;64832;45.274;5.880;2023-01-06T10:35:59;4.45;;;2.90;;
76105;SDS011;64832;45.274;5.880;2023-01-06T10:38:33;5.72;;;2.70;;
76105;SDS011;64832;45.274;5.880;2023-01-06T10:41:37;6.10;;;2.90;;
76105;SDS011;64832;45.274;5.880;2023-01-06T10:44:00;5.60;;;2.90;;
76105;SDS011;64832;45.274;5.880;2023-01-06T10:46:28;4.18;;;2.70;;
76105;SDS011;64832;45.274;5.880;2023-01-06T10:48:57;3.85;;;2.85;;
76105;SDS011;64832;45.274;5.880;2023-01-06T10:54:00;4.95;;;2.97;;
76105;SDS011;64832;45.274;5.880;2023-01-06T10:57:03;3.60;;;2.55;;
76105;SDS011;64832;45.274;5.880;2023-01-06T10:59:33;6.30;;;2.75;;
76105;SDS011;64832;45.274;5.880;2023-01-06T11:02:31;2.90;;;2.42;;
76105;SDS011;64832;45.274;5.880;2023-01-06T11:04:58;5.32;;;2.95;;
76105;SDS011;64832;45.274;5.880;2023-01-06T11:07:25;5.80;;;2.67;;
76105;SDS011;64832;45.274;5.880;2023-01-06T11:09:51;3.35;;;2.47;;
76105;SDS011;64832;45.274;5.880;2023-01-06T11:12:18;4.15;;;2.60;;
76105;SDS011;64832;45.274;5.880;2023-01-06T11:15:01;5.03;;;2.70;;
76105;SDS011;64832;45.274;5.880;2023-01-06T11:17:29;6.85;;;4.78;;
76105;SDS011;64832;45.274;5.880;2023-01-06T11:22:53;7.38;;;4.45;;
76105;SDS011;64832;45.274;5.880;2023-01-06T11:27:48;5.60;;;3.13;;
76105;SDS011;64832;45.274;5.880;2023-01-06T11:30:53;5.72;;;3.00;;
76105;SDS011;64832;45.274;5.880;2023-01-06T11:33:23;4.85;;;2.95;;
76105;SDS011;64832;45.274;5.880;2023-01-06T11:35:50;4.60;;;3.00;;
76105;SDS011;64832;45.274;5.880;2023-01-06T11:38:18;4.82;;;3.05;;
76105;SDS011;64832;45.274;5.880;2023-01-06T11:40:48;4.55;;;3.00;;
76105;SDS011;64832;45.274;5.880;2023-01-06T11:43:16;3.70;;;3.03;;
76105;SDS011;64832;45.274;5.880;2023-01-06T11:48:28;4.15;;;2.60;;
76105;SDS011;64832;45.274;5.880;2023-01-06T11:51:02;4.05;;;3.00;;
76105;SDS011;64832;45.274;5.880;2023-01-06T11:53:30;4.00;;;2.70;;
76105;SDS011;64832;45.274;5.880;2023-01-06T11:58:48;3.33;;;2.60;;
76105;SDS011;64832;45.274;5.880;2023-01-06T12:01:18;5.10;;;2.60;;
76105;SDS011;64832;45.274;5.880;2023-01-06T12:03:50;3.40;;;2.60;;
76105;SDS011;64832;45.274;5.880;2023-01-06T12:06:35;3.53;;;2.67;;
76105;SDS011;64832;45.274;5.880;2023-01-06T12:09:04;3.35;;;2.30;;
76105;SDS011;64832;45.274;5.880;2023-01-06T12:14:20;4.40;;;2.78;;
76105;SDS011;64832;45.274;5.880;2023-01-06T12:19:33;3.25;;;2.60;;
76105;SDS011;64832;45.274;5.880;2023-01-06T12:25:10;3.90;;;2.50;;
76105;SDS011;64832;45.274;5.880;2023-01-06T12:27:54;2.88;;;2.28;;
76105;SDS011;64832;45.274;5.880;2023-01-06T12:30:25;2.30;;;2.10;;
76105;SDS011;64832;45.274;5.880;2023-01-06T12:32:53;3.45;;;2.42;;
76105;SDS011;64832;45.274;5.880;2023-01-06T12:35:24;2.83;;;2.30;;
76105;SDS011;64832;45.274;5.880;2023-01-06T12:37:58;3.03;;;2.30;;
76105;SDS011;64832;45.274;5.880;2023-01-06T12:40:38;2.75;;;2.22;;
76105;SDS011;64832;45.274;5.880;2023-01-06T12:43:16;5.43;;;2.47;;
76105;SDS011;64832;45.274;5.880;2023-01-06T12:45:54;3.55;;;2.08;;
76105;SDS011;64832;45.274;5.880;2023-01-06T12:54:05;2.20;;;2.00;;
76105;SDS011;64832;45.274;5.880;2023-01-06T13:15:49;3.13;;;2.10;;
76105;SDS011;64832;45.274;5.880;2023-01-06T13:42:30;3.20;;;1.83;;
76105;SDS011;64832;45.274;5.880;2023-01-06T13:44:57;5.28;;;2.10;;
76105;SDS011;64832;45.274;5.880;2023-01-06T13:47:23;3.60;;;2.00;;
76105;SDS011;64832;45.274;5.880;2023-01-06T13:49:49;2.22;;;1.67;;
76105;SDS011;64832;45.274;5.880;2023-01-06T13:52:17;3.33;;;1.90;;
76105;SDS011;64832;45.274;5.880;2023-01-06T13:57:29;3.60;;;2.10;;
76105;SDS011;64832;45.274;5.880;2023-01-06T14:05:03;3.60;;;1.88;;
76105;SDS011;64832;45.274;5.880;2023-01-06T14:07:39;2.10;;;1.52;;
76105;SDS011;64832;45.274;5.880;2023-01-06T14:12:59;2.20;;;1.83;;
76105;SDS011;64832;45.274;5.880;2023-01-06T14:15:30;2.38;;;1.85;;
76105;SDS011;64832;45.274;5.880;2023-01-06T14:17:58;2.67;;;1.80;;
76105;SDS011;64832;45.274;5.880;2023-01-06T14:20:35;2.85;;;1.70;;
76105;SDS011;64832;45.274;5.880;2023-01-06T14:23:06;2.40;;;1.90;;
76105;SDS011;64832;45.274;5.880;2023-01-06T14:25:42;2.35;;;1.70;;
76105;SDS011;64832;45.274;5.880;2023-01-06T14:30:43;2.42;;;1.90;;
76105;SDS011;64832;45.274;5.880;2023-01-06T14:35:52;1.73;;;1.60;;
76105;SDS011;64832;45.274;5.880;2023-01-06T14:38:41;2.10;;;1.63;;
76105;SDS011;64832;45.274;5.880;2023-01-06T14:41:14;1.70;;;1.50;;
76105;SDS011;64832;45.274;5.880;2023-01-06T14:43:46;1.98;;;1.77;;
76105;SDS011;64832;45.274;5.880;2023-01-06T14:46:29;3.40;;;1.73;;
76105;SDS011;64832;45.274;5.880;2023-01-06T14:49:00;2.20;;;1.67;;
76105;SDS011;64832;45.274;5.880;2023-01-06T14:51:28;1.80;;;1.45;;
76105;SDS011;64832;45.274;5.880;2023-01-06T14:53:58;1.50;;;1.40;;
76105;SDS011;64832;45.274;5.880;2023-01-06T14:56:28;1.90;;;1.67;;
76105;SDS011;64832;45.274;5.880;2023-01-06T14:59:04;1.90;;;1.70;;
76105;SDS011;64832;45.274;5.880;2023-01-06T15:01:37;4.00;;;1.77;;
76105;SDS011;64832;45.274;5.880;2023-01-06T15:04:04;1.70;;;1.60;;
76105;SDS011;64832;45.274;5.880;2023-01-06T15:06:31;2.20;;;1.60;;
76105;SDS011;64832;45.274;5.880;2023-01-06T15:09:10;2.05;;;1.70;;
76105;SDS011;64832;45.274;5.880;2023-01-06T15:11:45;1.60;;;1.50;;
76105;SDS011;64832;45.274;5.880;2023-01-06T15:14:27;1.83;;;1.55;;
76105;SDS011;64832;45.274;5.880;2023-01-06T15:19:19;1.85;;;1.42;;
76105;SDS011;64832;45.274;5.880;2023-01-06T15:21:45;1.90;;;1.70;;
76105;SDS011;64832;45.274;5.880;2023-01-06T15:24:22;2.10;;;1.60;;
76105;SDS011;64832;45.274;5.880;2023-01-06T15:26:53;1.75;;;1.60;;
76105;SDS011;64832;45.274;5.880;2023-01-06T15:29:21;1.70;;;1.38;;
76105;SDS011;64832;45.274;5.880;2023-01-06T15:31:48;2.03;;;1.60;;
76105;SDS011;64832;45.274;5.880;2023-01-06T15:34:17;1.52;;;1.40;;
76105;SDS011;64832;45.274;5.880;2023-01-06T15:36:46;2.25;;;1.50;;
76105;SDS011;64832;45.274;5.880;2023-01-06T15:39:14;2.17;;;1.50;;
76105;SDS011;64832;45.274;5.880;2023-01-06T15:41:45;1.90;;;1.40;;
76105;SDS011;64832;45.274;5.880;2023-01-06T15:44:19;1.67;;;1.30;;
76105;SDS011;64832;45.274;5.880;2023-01-06T15:46:45;1.40;;;1.30;;
76105;SDS011;64832;45.274;5.880;2023-01-06T15:49:32;1.70;;;1.58;;
76105;SDS011;64832;45.274;5.880;2023-01-06T15:52:04;1.42;;;1.27;;
76105;SDS011;64832;45.274;5.880;2023-01-06T15:54:32;2.13;;;1.58;;
76105;SDS011;64832;45.274;5.880;2023-01-06T15:57:01;2.05;;;1.33;;
76105;SDS011;64832;45.274;5.880;2023-01-06T15:59:28;2.95;;;1.42;;
76105;SDS011;64832;45.274;5.880;2023-01-06T16:01:53;2.90;;;1.48;;
76105;SDS011;64832;45.274;5.880;2023-01-06T16:04:20;2.60;;;1.58;;
76105;SDS011;64832;45.274;5.880;2023-01-06T16:06:47;2.40;;;1.50;;
76105;SDS011;64832;45.274;5.880;2023-01-06T16:14:24;2.00;;;1.45;;
76105;SDS011;64832;45.274;5.880;2023-01-06T16:16:51;2.78;;;1.42;;
76105;SDS011;64832;45.274;5.880;2023-01-06T16:19:24;2.08;;;1.63;;
76105;SDS011;64832;45.274;5.880;2023-01-06T16:21:50;1.88;;;1.60;;
76105;SDS011;64832;45.274;5.880;2023-01-06T16:24:24;4.80;;;3.53;;
76105;SDS011;64832;45.274;5.880;2023-01-06T16:27:02;3.10;;;2.05;;
76105;SDS011;64832;45.274;5.880;2023-01-06T16:29:31;2.15;;;1.88;;
76105;SDS011;64832;45.274;5.880;2023-01-06T16:32:18;2.33;;;1.77;;
76105;SDS011;64832;45.274;5.880;2023-01-06T16:34:54;3.40;;;1.80;;
76105;SDS011;64832;45.274;5.880;2023-01-06T16:37:24;2.63;;;1.92;;
76105;SDS011;64832;45.274;5.880;2023-01-06T16:39:52;2.40;;;1.85;;
76105;SDS011;64832;45.274;5.880;2023-01-06T16:42:23;2.40;;;1.90;;
76105;SDS011;64832;45.274;5.880;2023-01-06T16:45:48;3.78;;;1.90;;
76105;SDS011;64832;45.274;5.880;2023-01-06T16:47:51;2.85;;;2.20;;
76105;SDS011;64832;45.274;5.880;2023-01-06T16:50:21;2.80;;;2.10;;
76105;SDS011;64832;45.274;5.880;2023-01-06T16:52:53;4.38;;;2.42;;
76105;SDS011;64832;45.274;5.880;2023-01-06T16:55:25;4.32;;;2.50;;
76105;SDS011;64832;45.274;5.880;2023-01-06T16:57:50;2.58;;;2.20;;
76105;SDS011;64832;45.274;5.880;2023-01-06T17:00:20;3.90;;;2.40;;
76105;SDS011;64832;45.274;5.880;2023-01-06T17:02:47;2.90;;;2.40;;
76105;SDS011;64832;45.274;5.880;2023-01-06T17:05:19;2.50;;;2.30;;
76105;SDS011;64832;45.274;5.880;2023-01-06T17:07:49;2.72;;;2.42;;
76105;SDS011;64832;45.274;5.880;2023-01-06T17:10:20;4.28;;;2.60;;
76105;SDS011;64832;45.274;5.880;2023-01-06T17:12:54;4.68;;;2.40;;
76105;SDS011;64832;45.274;5.880;2023-01-06T17:15:41;3.73;;;2.23;;
76105;SDS011;64832;45.274;5.880;2023-01-06T17:18:19;3.55;;;2.60;;
76105;SDS011;64832;45.274;5.880;2023-01-06T17:20:47;3.85;;;2.83;;
76105;SDS011;64832;45.274;5.880;2023-01-06T17:23:14;4.00;;;2.67;;
76105;SDS011;64832;45.274;5.880;2023-01-06T17:25:39;3.03;;;2.63;;
76105;SDS011;64832;45.274;5.880;2023-01-06T17:28:17;3.05;;;2.30;;
76105;SDS011;64832;45.274;5.880;2023-01-06T17:30:45;4.07;;;2.65;;
76105;SDS011;64832;45.274;5.880;2023-01-06T17:33:12;3.33;;;2.70;;
76105;SDS011;64832;45.274;5.880;2023-01-06T17:35:39;3.38;;;2.50;;
76105;SDS011;64832;45.274;5.880;2023-01-06T17:38:14;4.57;;;2.40;;
76105;SDS011;64832;45.274;5.880;2023-01-06T17:40:43;3.45;;;2.47;;
76105;SDS011;64832;45.274;5.880;2023-01-06T17:43:13;3.53;;;2.33;;
76105;SDS011;64832;45.274;5.880;2023-01-06T17:45:46;3.13;;;2.45;;
76105;SDS011;64832;45.274;5.880;2023-01-06T17:48:12;2.63;;;2.22;;
76105;SDS011;64832;45.274;5.880;2023-01-06T17:50:43;3.40;;;2.70;;
76105;SDS011;64832;45.274;5.880;2023-01-06T17:53:12;3.60;;;2.60;;
76105;SDS011;64832;45.274;5.880;2023-01-06T17:56:23;3.33;;;2.40;;
76105;SDS011;64832;45.274;5.880;2023-01-06T17:58:49;2.88;;;2.40;;
76105;SDS011;64832;45.274;5.880;2023-01-06T18:03:45;4.78;;;2.90;;
76105;SDS011;64832;45.274;5.880;2023-01-06T18:09:00;3.30;;;2.40;;
76105;SDS011;64832;45.274;5.880;2023-01-06T18:11:34;3.65;;;2.67;;
76105;SDS011;64832;45.274;5.880;2023-01-06T18:14:13;3.55;;;2.75;;
76105;SDS011;64832;45.274;5.880;2023-01-06T18:16:39;5.03;;;3.03;;
76105;SDS011;64832;45.274;5.880;2023-01-06T18:22:15;3.22;;;2.65;;
76105;SDS011;64832;45.274;5.880;2023-01-06T18:24:48;3.63;;;2.95;;
76105;SDS011;64832;45.274;5.880;2023-01-06T18:27:17;3.90;;;2.92;;
76105;SDS011;64832;45.274;5.880;2023-01-06T18:29:47;3.30;;;2.70;;
76105;SDS011;64832;45.274;5.880;2023-01-06T18:34:44;5.80;;;3.15;;
76105;SDS011;64832;45.274;5.880;2023-01-06T18:37:10;3.85;;;3.08;;
76105;SDS011;64832;45.274;5.880;2023-01-06T18:39:37;5.60;;;3.20;;
76105;SDS011;64832;45.274;5.880;2023-01-06T18:45:00;3.85;;;3.10;;
76105;SDS011;64832;45.274;5.880;2023-01-06T18:47:33;3.95;;;3.38;;
76105;SDS011;64832;45.274;5.880;2023-01-06T18:50:12;4.28;;;3.15;;
76105;SDS011;64832;45.274;5.880;2023-01-06T18:52:47;4.70;;;3.20;;
76105;SDS011;64832;45.274;5.880;2023-01-06T18:57:39;6.88;;;3.60;;
76105;SDS011;64832;45.274;5.880;2023-01-06T19:03:48;4.18;;;2.97;;
76105;SDS011;64832;45.274;5.880;2023-01-06T19:08:39;4.65;;;3.20;;
76105;SDS011;64832;45.274;5.880;2023-01-06T19:11:18;4.00;;;3.17;;
76105;SDS011;64832;45.274;5.880;2023-01-06T19:13:46;4.18;;;3.10;;
76105;SDS011;64832;45.274;5.880;2023-01-06T19:16:29;3.55;;;3.20;;
76105;SDS011;64832;45.274;5.880;2023-01-06T19:19:21;4.47;;;2.83;;
76105;SDS011;64832;45.274;5.880;2023-01-06T19:22:08;3.30;;;2.85;;
76105;SDS011;64832;45.274;5.880;2023-01-06T19:25:06;4.53;;;2.67;;
76105;SDS011;64832;45.274;5.880;2023-01-06T19:27:48;4.35;;;3.20;;
76105;SDS011;64832;45.274;5.880;2023-01-06T19:32:47;3.17;;;2.83;;
76105;SDS011;64832;45.274;5.880;2023-01-06T19:35:30;3.55;;;2.85;;
76105;SDS011;64832;45.274;5.880;2023-01-06T19:37:57;3.33;;;2.70;;
76105;SDS011;64832;45.274;5.880;2023-01-06T19:40:27;3.88;;;3.22;;
76105;SDS011;64832;45.274;5.880;2023-01-06T19:42:58;4.05;;;3.13;;
76105;SDS011;64832;45.274;5.880;2023-01-06T19:45:33;3.80;;;3.03;;
76105;SDS011;64832;45.274;5.880;2023-01-06T19:47:59;3.83;;;3.35;;
76105;SDS011;64832;45.274;5.880;2023-01-06T19:50:26;3.08;;;2.70;;
76105;SDS011;64832;45.274;5.880;2023-01-06T19:52:55;3.50;;;3.10;;
76105;SDS011;64832;45.274;5.880;2023-01-06T19:55:23;3.53;;;3.08;;
76105;SDS011;64832;45.274;5.880;2023-01-06T19:57:54;3.38;;;3.08;;
76105;SDS011;64832;45.274;5.880;2023-01-06T20:00:22;3.38;;;2.90;;
76105;SDS011;64832;45.274;5.880;2023-01-06T20:05:59;3.40;;;2.88;;
76105;SDS011;64832;45.274;5.880;2023-01-06T20:08:24;3.95;;;3.22;;
76105;SDS011;64832;45.274;5.880;2023-01-06T20:10:50;3.53;;;3.20;;
76105;SDS011;64832;45.274;5.880;2023-01-06T20:13:15;3.20;;;2.90;;
76105;SDS011;64832;45.274;5.880;2023-01-06T20:15:41;3.17;;;2.63;;
76105;SDS011;64832;45.274;5.880;2023-01-06T20:18:06;4.30;;;3.00;;
76105;SDS011;64832;45.274;5.880;2023-01-06T20:20:31;4.20;;;3.05;;
76105;SDS011;64832;45.274;5.880;2023-01-06T20:22:57;3.25;;;2.75;;
76105;SDS011;64832;45.274;5.880;2023-01-06T20:25:22;3.55;;;2.90;;
76105;SDS011;64832;45.274;5.880;2023-01-06T20:27:48;4.20;;;3.05;;
76105;SDS011;64832;45.274;5.880;2023-01-06T20:30:13;3.92;;;3.10;;
76105;SDS011;64832;45.274;5.880;2023-01-06T20:32:39;3.50;;;3.00;;
76105;SDS011;64832;45.274;5.880;2023-01-06T20:35:04;3.95;;;3.13;;
76105;SDS011;64832;45.274;5.880;2023-01-06T20:37:30;4.38;;;3.22;;
76105;SDS011;64832;45.274;5.880;2023-01-06T20:39:56;3.20;;;2.90;;
76105;SDS011;64832;45.274;5.880;2023-01-06T20:42:22;3.83;;;2.90;;
76105;SDS011;64832;45.274;5.880;2023-01-06T20:44:47;3.20;;;2.90;;
76105;SDS011;64832;45.274;5.880;2023-01-06T20:47:13;3.30;;;2.85;;
76105;SDS011;64832;45.274;5.880;2023-01-06T20:49:38;3.45;;;2.58;;
76105;SDS011;64832;45.274;5.880;2023-01-06T20:52:04;3.00;;;2.70;;
76105;SDS011;64832;45.274;5.880;2023-01-06T20:54:30;3.90;;;2.33;;
76105;SDS011;64832;45.274;5.880;2023-01-06T20:56:55;3.38;;;2.80;;
76105;SDS011;64832;45.274;5.880;2023-01-06T20:59:21;2.90;;;2.47;;
76105;SDS011;64832;45.274;5.880;2023-01-06T21:01:46;3.25;;;2.72;;
76105;SDS011;64832;45.274;5.880;2023-01-06T21:04:12;3.20;;;2.60;;
76105;SDS011;64832;45.274;5.880;2023-01-06T21:06:37;3.22;;;2.90;;
76105;SDS011;64832;45.274;5.880;2023-01-06T21:09:02;2.67;;;2.38;;
76105;SDS011;64832;45.274;5.880;2023-01-06T21:11:28;2.38;;;2.17;;
76105;SDS011;64832;45.274;5.880;2023-01-06T21:13:54;2.90;;;2.45;;
76105;SDS011;64832;45.274;5.880;2023-01-06T21:16:19;3.53;;;3.22;;
76105;SDS011;64832;45.274;5.880;2023-01-06T21:18:46;4.25;;;3.30;;
76105;SDS011;64832;45.274;5.880;2023-01-06T21:21:12;3.85;;;3.08;;
76105;SDS011;64832;45.274;5.880;2023-01-06T21:23:37;3.70;;;2.70;;
76105;SDS011;64832;45.274;5.880;2023-01-06T21:26:03;3.25;;;2.78;;
76105;SDS011;64832;45.274;5.880;2023-01-06T21:28:28;2.83;;;2.53;;
76105;SDS011;64832;45.274;5.880;2023-01-06T21:30:54;3.15;;;2.70;;
76105;SDS011;64832;45.274;5.880;2023-01-06T21:33:19;3.03;;;2.72;;
76105;SDS011;64832;45.274;5.880;2023-01-06T21:35:44;3.63;;;2.63;;
76105;SDS011;64832;45.274;5.880;2023-01-06T21:38:10;2.85;;;2.47;;
76105;SDS011;64832;45.274;5.880;2023-01-06T21:40:36;3.30;;;2.70;;
76105;SDS011;64832;45.274;5.880;2023-01-06T21:43:02;3.17;;;2.85;;
76105;SDS011;64832;45.274;5.880;2023-01-06T21:45:37;3.00;;;2.70;;
76105;SDS011;64832;45.274;5.880;2023-01-06T21:48:04;2.72;;;2.28;;
76105;SDS011;64832;45.274;5.880;2023-01-06T21:50:31;3.47;;;2.42;;
76105;SDS011;64832;45.274;5.880;2023-01-06T21:52:59;3.50;;;2.85;;
76105;SDS011;64832;45.274;5.880;2023-01-06T21:55:25;3.15;;;2.35;;
76105;SDS011;64832;45.274;5.880;2023-01-06T21:57:51;2.58;;;2.38;;
76105;SDS011;64832;45.274;5.880;2023-01-06T22:00:16;2.95;;;2.38;;
76105;SDS011;64832;45.274;5.880;2023-01-06T22:02:43;3.03;;;2.35;;
76105;SDS011;64832;45.274;5.880;2023-01-06T22:05:09;2.83;;;2.50;;
76105;SDS011;64832;45.274;5.880;2023-01-06T22:07:35;2.53;;;2.10;;
76105;SDS011;64832;45.274;5.880;2023-01-06T22:10:05;2.45;;;2.10;;
76105;SDS011;64832;45.274;5.880;2023-01-06T22:12:32;2.40;;;2.20;;
76105;SDS011;64832;45.274;5.880;2023-01-06T22:14:58;2.88;;;2.30;;
76105;SDS011;64832;45.274;5.880;2023-01-06T22:17:23;2.67;;;2.40;;
76105;SDS011;64832;45.274;5.880;2023-01-06T22:19:49;2.55;;;2.25;;
76105;SDS011;64832;45.274;5.880;2023-01-06T22:22:17;2.30;;;2.10;;
76105;SDS011;64832;45.274;5.880;2023-01-06T22:24:45;3.08;;;2.10;;
76105;SDS011;64832;45.274;5.880;2023-01-06T22:27:12;3.15;;;2.20;;
76105;SDS011;64832;45.274;5.880;2023-01-06T22:29:38;2.22;;;1.88;;
76105;SDS011;64832;45.274;5.880;2023-01-06T22:32:04;2.30;;;2.10;;
76105;SDS011;64832;45.274;5.880;2023-01-06T22:34:29;2.85;;;2.22;;
76105;SDS011;64832;45.274;5.880;2023-01-06T22:36:55;3.08;;;2.20;;
76105;SDS011;64832;45.274;5.880;2023-01-06T22:39:20;2.30;;;2.10;;
76105;SDS011;64832;45.274;5.880;2023-01-06T22:41:46;2.38;;;2.15;;
76105;SDS011;64832;45.274;5.880;2023-01-06T22:44:11;2.10;;;1.90;;
76105;SDS011;64832;45.274;5.880;2023-01-06T22:46:37;2.17;;;1.98;;
76105;SDS011;64832;45.274;5.880;2023-01-06T22:49:02;2.50;;;2.30;;
76105;SDS011;64832;45.274;5.880;2023-01-06T22:51:28;3.22;;;2.20;;
76105;SDS011;64832;45.274;5.880;2023-01-06T22:53:54;4.25;;;2.63;;
76105;SDS011;64832;45.274;5.880;2023-01-06T22:56:20;3.33;;;2.70;;
76105;SDS011;64832;45.274;5.880;2023-01-06T22:58:46;3.10;;;2.63;;
76105;SDS011;64832;45.274;5.880;2023-01-06T23:01:11;3.25;;;2.55;;